sensor_id;sensor_type;location;lat;lon;timestamp;temperature;humidity
21031;DHT22;61072;47.808;7.636;2023-06-10T00:01:15;22.30;99.90
21031;DHT22;61072;47.808;7.636;2023-06-10T00:03:42;22.30;99.90
21031;DHT22;61072;47.808;7.636;2023-06-10T00:06:10;22.30;99.90
21031;DHT22;61072;47.808;7.636;2023-06-10T00:08:37;22.30;99.90
21031;DHT22;61072;47.808;7.636;2023-06-10T00:11:04;22.30;99.90
21031;DHT22;61072;47.808;7.636;2023-06-10T00:13:30;22.30;99.90
21031;DHT22;61072;47.808;7.636;2023-06-10T00:15:57;22.20;99.90
21031;DHT22;61072;47.808;7.636;2023-06-10T00:18:24;22.20;99.90
21031;DHT22;61072;47.808;7.636;2023-06-10T00:20:53;22.20;99.90
21031;DHT22;61072;47.808;7.636;2023-06-10T00:23:21;22.10;99.90
21031;DHT22;61072;47.808;7.636;2023-06-10T00:25:49;22.10;99.90
21031;DHT22;61072;47.808;7.636;2023-06-10T00:28:15;22.10;99.90
21031;DHT22;61072;47.808;7.636;2023-06-10T00:30:42;22.00;99.90
21031;DHT22;61072;47.808;7.636;2023-06-10T00:33:09;22.00;99.90
21031;DHT22;61072;47.808;7.636;2023-06-10T00:35:36;22.00;99.90
21031;DHT22;61072;47.808;7.636;2023-06-10T00:38:03;22.00;99.90
21031;DHT22;61072;47.808;7.636;2023-06-10T00:40:30;21.90;99.90
21031;DHT22;61072;47.808;7.636;2023-06-10T00:42:56;21.90;99.90
21031;DHT22;61072;47.808;7.636;2023-06-10T00:45:23;21.90;99.90
21031;DHT22;61072;47.808;7.636;2023-06-10T00:47:50;21.90;99.90
21031;DHT22;61072;47.808;7.636;2023-06-10T00:50:17;21.80;99.90
21031;DHT22;61072;47.808;7.636;2023-06-10T00:52:44;21.80;99.90
21031;DHT22;61072;47.808;7.636;2023-06-10T00:55:12;21.80;99.90
21031;DHT22;61072;47.808;7.636;2023-06-10T00:57:39;21.70;99.90
21031;DHT22;61072;47.808;7.636;2023-06-10T01:00:07;21.70;99.90
21031;DHT22;61072;47.808;7.636;2023-06-10T01:02:35;21.70;99.90
21031;DHT22;61072;47.808;7.636;2023-06-10T01:05:02;21.60;99.90
21031;DHT22;61072;47.808;7.636;2023-06-10T01:10:33;21.60;99.90
21031;DHT22;61072;47.808;7.636;2023-06-10T01:13:03;21.50;99.90
21031;DHT22;61072;47.808;7.636;2023-06-10T01:15:31;21.50;99.90
21031;DHT22;61072;47.808;7.636;2023-06-10T01:18:03;21.50;99.90
21031;DHT22;61072;47.808;7.636;2023-06-10T01:20:31;21.40;99.90
21031;DHT22;61072;47.808;7.636;2023-06-10T01:22:59;21.40;99.90
21031;DHT22;61072;47.808;7.636;2023-06-10T01:25:27;21.40;99.90
21031;DHT22;61072;47.808;7.636;2023-06-10T01:28:07;21.30;99.90
21031;DHT22;61072;47.808;7.636;2023-06-10T01:33:31;21.20;99.90
21031;DHT22;61072;47.808;7.636;2023-06-10T01:36:01;21.20;99.90
21031;DHT22;61072;47.808;7.636;2023-06-10T01:38:32;21.10;99.90
21031;DHT22;61072;47.808;7.636;2023-06-10T01:41:00;21.10;99.90
21031;DHT22;61072;47.808;7.636;2023-06-10T01:43:27;21.10;99.90
21031;DHT22;61072;47.808;7.636;2023-06-10T01:45:53;21.10;99.90
21031;DHT22;61072;47.808;7.636;2023-06-10T01:48:20;21.00;99.90
21031;DHT22;61072;47.808;7.636;2023-06-10T01:50:47;21.00;99.90
21031;DHT22;61072;47.808;7.636;2023-06-10T01:53:13;21.00;99.90
21031;DHT22;61072;47.808;7.636;2023-06-10T01:55:40;20.90;99.90
21031;DHT22;61072;47.808;7.636;2023-06-10T01:58:07;20.90;99.90
21031;DHT22;61072;47.808;7.636;2023-06-10T02:00:34;20.90;99.90
21031;DHT22;61072;47.808;7.636;2023-06-10T02:03:00;20.80;99.90
21031;DHT22;61072;47.808;7.636;2023-06-10T02:05:27;20.80;99.90
21031;DHT22;61072;47.808;7.636;2023-06-10T02:07:54;20.80;99.90
21031;DHT22;61072;47.808;7.636;2023-06-10T02:10:21;20.80;99.90
21031;DHT22;61072;47.808;7.636;2023-06-10T02:12:48;20.70;99.90
21031;DHT22;61072;47.808;7.636;2023-06-10T02:15:14;20.60;99.90
21031;DHT22;61072;47.808;7.636;2023-06-10T02:17:41;20.60;99.90
21031;DHT22;61072;47.808;7.636;2023-06-10T02:20:08;20.60;99.90
21031;DHT22;61072;47.808;7.636;2023-06-10T02:22:37;20.50;99.90
21031;DHT22;61072;47.808;7.636;2023-06-10T02:25:05;20.50;99.90
21031;DHT22;61072;47.808;7.636;2023-06-10T02:27:32;20.50;99.90
21031;DHT22;61072;47.808;7.636;2023-06-10T02:29:59;20.50;99.90
21031;DHT22;61072;47.808;7.636;2023-06-10T02:32:26;20.40;99.90
21031;DHT22;61072;47.808;7.636;2023-06-10T02:34:53;20.40;99.90
21031;DHT22;61072;47.808;7.636;2023-06-10T02:37:20;20.40;99.90
21031;DHT22;61072;47.808;7.636;2023-06-10T02:39:47;20.30;99.90
21031;DHT22;61072;47.808;7.636;2023-06-10T02:42:13;20.30;99.90
21031;DHT22;61072;47.808;7.636;2023-06-10T02:44:40;20.30;99.90
21031;DHT22;61072;47.808;7.636;2023-06-10T02:47:07;20.30;99.90
21031;DHT22;61072;47.808;7.636;2023-06-10T02:49:34;20.20;99.90
21031;DHT22;61072;47.808;7.636;2023-06-10T02:52:01;20.20;99.90
21031;DHT22;61072;47.808;7.636;2023-06-10T02:54:27;20.10;99.90
21031;DHT22;61072;47.808;7.636;2023-06-10T02:56:54;20.10;99.90
21031;DHT22;61072;47.808;7.636;2023-06-10T02:59:22;20.10;99.90
21031;DHT22;61072;47.808;7.636;2023-06-10T03:01:49;20.00;99.90
21031;DHT22;61072;47.808;7.636;2023-06-10T03:04:16;20.00;99.90
21031;DHT22;61072;47.808;7.636;2023-06-10T03:06:42;20.00;99.90
21031;DHT22;61072;47.808;7.636;2023-06-10T03:09:10;19.90;99.90
21031;DHT22;61072;47.808;7.636;2023-06-10T03:11:36;19.90;99.90
21031;DHT22;61072;47.808;7.636;2023-06-10T03:14:03;19.90;99.90
21031;DHT22;61072;47.808;7.636;2023-06-10T03:16:30;19.80;99.90
21031;DHT22;61072;47.808;7.636;2023-06-10T03:18:58;19.80;99.90
21031;DHT22;61072;47.808;7.636;2023-06-10T03:21:25;19.80;99.90
21031;DHT22;61072;47.808;7.636;2023-06-10T03:23:52;19.80;99.90
21031;DHT22;61072;47.808;7.636;2023-06-10T03:26:19;19.80;99.90
21031;DHT22;61072;47.808;7.636;2023-06-10T03:28:48;19.80;99.90
21031;DHT22;61072;47.808;7.636;2023-06-10T03:31:15;19.70;99.90
21031;DHT22;61072;47.808;7.636;2023-06-10T03:33:43;19.70;99.90
21031;DHT22;61072;47.808;7.636;2023-06-10T03:36:10;19.70;99.90
21031;DHT22;61072;47.808;7.636;2023-06-10T03:38:37;19.70;99.90
21031;DHT22;61072;47.808;7.636;2023-06-10T03:41:03;19.60;99.90
21031;DHT22;61072;47.808;7.636;2023-06-10T03:43:30;19.60;99.90
21031;DHT22;61072;47.808;7.636;2023-06-10T03:45:57;19.60;99.90
21031;DHT22;61072;47.808;7.636;2023-06-10T03:48:24;19.50;99.90
21031;DHT22;61072;47.808;7.636;2023-06-10T03:50:51;19.50;99.90
21031;DHT22;61072;47.808;7.636;2023-06-10T03:53:18;19.50;99.90
21031;DHT22;61072;47.808;7.636;2023-06-10T03:55:45;19.50;99.90
21031;DHT22;61072;47.808;7.636;2023-06-10T03:58:12;19.50;99.90
21031;DHT22;61072;47.808;7.636;2023-06-10T04:00:42;19.50;99.90
21031;DHT22;61072;47.808;7.636;2023-06-10T04:03:09;19.50;99.90
21031;DHT22;61072;47.808;7.636;2023-06-10T04:05:41;19.50;99.90
21031;DHT22;61072;47.808;7.636;2023-06-10T04:08:08;19.40;99.90
21031;DHT22;61072;47.808;7.636;2023-06-10T04:10:35;19.40;99.90
21031;DHT22;61072;47.808;7.636;2023-06-10T04:13:02;19.40;99.90
21031;DHT22;61072;47.808;7.636;2023-06-10T04:15:30;19.40;99.90
21031;DHT22;61072;47.808;7.636;2023-06-10T04:17:59;19.40;99.90
21031;DHT22;61072;47.808;7.636;2023-06-10T04:20:27;19.40;99.90
21031;DHT22;61072;47.808;7.636;2023-06-10T04:22:54;19.40;99.90
21031;DHT22;61072;47.808;7.636;2023-06-10T04:25:21;19.40;99.90
21031;DHT22;61072;47.808;7.636;2023-06-10T04:27:48;19.40;99.90
21031;DHT22;61072;47.808;7.636;2023-06-10T04:30:16;19.50;99.90
21031;DHT22;61072;47.808;7.636;2023-06-10T04:32:42;19.50;99.90
21031;DHT22;61072;47.808;7.636;2023-06-10T04:35:11;19.50;99.90
21031;DHT22;61072;47.808;7.636;2023-06-10T04:37:39;19.50;99.90
21031;DHT22;61072;47.808;7.636;2023-06-10T04:40:07;19.50;99.90
21031;DHT22;61072;47.808;7.636;2023-06-10T04:42:35;19.60;99.90
21031;DHT22;61072;47.808;7.636;2023-06-10T04:45:02;19.60;99.90
21031;DHT22;61072;47.808;7.636;2023-06-10T04:47:30;19.70;99.90
21031;DHT22;61072;47.808;7.636;2023-06-10T04:50:01;19.70;99.90
21031;DHT22;61072;47.808;7.636;2023-06-10T04:52:27;19.80;99.90
21031;DHT22;61072;47.808;7.636;2023-06-10T04:54:54;19.90;99.90
21031;DHT22;61072;47.808;7.636;2023-06-10T04:57:21;20.10;99.90
21031;DHT22;61072;47.808;7.636;2023-06-10T04:59:48;20.20;99.90
21031;DHT22;61072;47.808;7.636;2023-06-10T05:02:14;20.30;99.90
21031;DHT22;61072;47.808;7.636;2023-06-10T05:04:41;20.50;99.90
21031;DHT22;61072;47.808;7.636;2023-06-10T05:07:08;20.60;99.90
21031;DHT22;61072;47.808;7.636;2023-06-10T05:09:35;20.80;99.90
21031;DHT22;61072;47.808;7.636;2023-06-10T05:12:02;20.90;99.90
21031;DHT22;61072;47.808;7.636;2023-06-10T05:14:29;21.10;99.90
21031;DHT22;61072;47.808;7.636;2023-06-10T05:16:56;21.20;99.90
21031;DHT22;61072;47.808;7.636;2023-06-10T05:19:23;21.30;99.90
21031;DHT22;61072;47.808;7.636;2023-06-10T05:21:50;21.40;99.90
21031;DHT22;61072;47.808;7.636;2023-06-10T05:24:16;21.50;99.90
21031;DHT22;61072;47.808;7.636;2023-06-10T05:26:43;21.70;99.90
21031;DHT22;61072;47.808;7.636;2023-06-10T05:29:11;21.70;99.90
21031;DHT22;61072;47.808;7.636;2023-06-10T05:31:37;21.80;99.90
21031;DHT22;61072;47.808;7.636;2023-06-10T05:34:04;21.90;99.90
21031;DHT22;61072;47.808;7.636;2023-06-10T05:36:31;21.90;99.90
21031;DHT22;61072;47.808;7.636;2023-06-10T05:38:59;22.00;99.90
21031;DHT22;61072;47.808;7.636;2023-06-10T05:41:25;22.10;99.90
21031;DHT22;61072;47.808;7.636;2023-06-10T05:43:52;22.10;99.90
21031;DHT22;61072;47.808;7.636;2023-06-10T05:46:20;22.10;99.90
21031;DHT22;61072;47.808;7.636;2023-06-10T05:48:46;22.10;99.90
21031;DHT22;61072;47.808;7.636;2023-06-10T05:51:13;22.00;99.90
21031;DHT22;61072;47.808;7.636;2023-06-10T05:53:40;22.10;99.90
21031;DHT22;61072;47.808;7.636;2023-06-10T05:56:07;22.00;99.90
21031;DHT22;61072;47.808;7.636;2023-06-10T05:58:33;22.00;99.90
21031;DHT22;61072;47.808;7.636;2023-06-10T06:01:00;22.00;99.90
21031;DHT22;61072;47.808;7.636;2023-06-10T06:03:27;21.90;99.90
21031;DHT22;61072;47.808;7.636;2023-06-10T06:05:55;21.90;99.90
21031;DHT22;61072;47.808;7.636;2023-06-10T06:08:22;22.00;99.90
21031;DHT22;61072;47.808;7.636;2023-06-10T06:10:50;21.90;99.90
21031;DHT22;61072;47.808;7.636;2023-06-10T06:13:16;21.90;99.90
21031;DHT22;61072;47.808;7.636;2023-06-10T06:15:43;21.90;99.90
21031;DHT22;61072;47.808;7.636;2023-06-10T06:18:10;21.90;99.90
21031;DHT22;61072;47.808;7.636;2023-06-10T06:20:37;21.90;99.90
21031;DHT22;61072;47.808;7.636;2023-06-10T06:23:03;21.90;99.90
21031;DHT22;61072;47.808;7.636;2023-06-10T06:25:30;21.90;99.90
21031;DHT22;61072;47.808;7.636;2023-06-10T06:27:57;21.90;99.90
21031;DHT22;61072;47.808;7.636;2023-06-10T06:30:24;21.90;99.90
21031;DHT22;61072;47.808;7.636;2023-06-10T06:32:50;21.90;99.90
21031;DHT22;61072;47.808;7.636;2023-06-10T06:35:18;21.90;99.90
21031;DHT22;61072;47.808;7.636;2023-06-10T06:37:45;21.90;99.90
21031;DHT22;61072;47.808;7.636;2023-06-10T06:40:12;21.90;99.90
21031;DHT22;61072;47.808;7.636;2023-06-10T06:42:39;21.90;99.90
21031;DHT22;61072;47.808;7.636;2023-06-10T06:45:06;22.00;99.90
21031;DHT22;61072;47.808;7.636;2023-06-10T06:47:33;22.00;99.90
21031;DHT22;61072;47.808;7.636;2023-06-10T06:50:00;22.10;99.90
21031;DHT22;61072;47.808;7.636;2023-06-10T06:52:27;22.10;99.90
21031;DHT22;61072;47.808;7.636;2023-06-10T06:54:54;22.10;99.90
21031;DHT22;61072;47.808;7.636;2023-06-10T06:57:20;22.10;99.90
21031;DHT22;61072;47.808;7.636;2023-06-10T06:59:47;22.10;99.90
21031;DHT22;61072;47.808;7.636;2023-06-10T07:02:14;22.20;99.90
21031;DHT22;61072;47.808;7.636;2023-06-10T07:04:40;22.20;99.90
21031;DHT22;61072;47.808;7.636;2023-06-10T07:07:08;22.20;99.90
21031;DHT22;61072;47.808;7.636;2023-06-10T07:09:35;22.20;99.90
21031;DHT22;61072;47.808;7.636;2023-06-10T07:12:02;22.20;99.90
21031;DHT22;61072;47.808;7.636;2023-06-10T07:14:29;22.20;99.90
21031;DHT22;61072;47.808;7.636;2023-06-10T07:16:56;22.30;99.90
21031;DHT22;61072;47.808;7.636;2023-06-10T07:19:22;22.30;99.90
21031;DHT22;61072;47.808;7.636;2023-06-10T07:21:49;22.30;99.90
21031;DHT22;61072;47.808;7.636;2023-06-10T07:24:16;22.40;99.90
21031;DHT22;61072;47.808;7.636;2023-06-10T07:26:43;22.30;99.90
21031;DHT22;61072;47.808;7.636;2023-06-10T07:29:10;22.40;99.90
21031;DHT22;61072;47.808;7.636;2023-06-10T07:31:36;22.40;99.90
21031;DHT22;61072;47.808;7.636;2023-06-10T07:34:03;22.40;99.90
21031;DHT22;61072;47.808;7.636;2023-06-10T07:36:30;22.50;99.90
21031;DHT22;61072;47.808;7.636;2023-06-10T07:38:57;22.50;99.90
21031;DHT22;61072;47.808;7.636;2023-06-10T07:41:24;22.60;99.90
21031;DHT22;61072;47.808;7.636;2023-06-10T07:43:53;22.60;99.90
21031;DHT22;61072;47.808;7.636;2023-06-10T07:46:21;22.60;99.90
21031;DHT22;61072;47.808;7.636;2023-06-10T07:48:48;22.60;99.90
21031;DHT22;61072;47.808;7.636;2023-06-10T07:51:16;22.60;99.90
21031;DHT22;61072;47.808;7.636;2023-06-10T07:53:43;22.70;99.90
21031;DHT22;61072;47.808;7.636;2023-06-10T07:56:09;22.70;99.90
21031;DHT22;61072;47.808;7.636;2023-06-10T07:58:36;22.70;99.90
21031;DHT22;61072;47.808;7.636;2023-06-10T08:01:03;22.80;99.90
21031;DHT22;61072;47.808;7.636;2023-06-10T08:03:29;22.70;99.90
21031;DHT22;61072;47.808;7.636;2023-06-10T08:05:56;22.80;99.90
21031;DHT22;61072;47.808;7.636;2023-06-10T08:08:23;22.90;99.90
21031;DHT22;61072;47.808;7.636;2023-06-10T08:10:49;22.90;99.90
21031;DHT22;61072;47.808;7.636;2023-06-10T08:13:16;22.90;99.90
21031;DHT22;61072;47.808;7.636;2023-06-10T08:15:43;22.90;99.90
21031;DHT22;61072;47.808;7.636;2023-06-10T08:18:10;23.00;99.90
21031;DHT22;61072;47.808;7.636;2023-06-10T08:20:36;23.00;99.90
21031;DHT22;61072;47.808;7.636;2023-06-10T08:23:03;23.00;99.90
21031;DHT22;61072;47.808;7.636;2023-06-10T08:25:30;23.10;99.90
21031;DHT22;61072;47.808;7.636;2023-06-10T08:27:56;23.10;99.90
21031;DHT22;61072;47.808;7.636;2023-06-10T08:30:24;23.10;99.90
21031;DHT22;61072;47.808;7.636;2023-06-10T08:32:51;23.20;99.90
21031;DHT22;61072;47.808;7.636;2023-06-10T08:35:18;23.20;99.90
21031;DHT22;61072;47.808;7.636;2023-06-10T08:37:45;23.30;99.90
21031;DHT22;61072;47.808;7.636;2023-06-10T08:40:12;23.30;99.90
21031;DHT22;61072;47.808;7.636;2023-06-10T08:45:18;23.40;99.90
21031;DHT22;61072;47.808;7.636;2023-06-10T08:47:45;23.40;99.90
21031;DHT22;61072;47.808;7.636;2023-06-10T08:50:16;23.40;99.90
21031;DHT22;61072;47.808;7.636;2023-06-10T08:52:44;23.50;99.90
21031;DHT22;61072;47.808;7.636;2023-06-10T08:55:18;23.50;99.90
21031;DHT22;61072;47.808;7.636;2023-06-10T08:57:55;23.50;99.90
21031;DHT22;61072;47.808;7.636;2023-06-10T09:00:22;23.50;99.90
21031;DHT22;61072;47.808;7.636;2023-06-10T09:02:50;23.50;99.90
21031;DHT22;61072;47.808;7.636;2023-06-10T09:05:17;23.50;99.90
21031;DHT22;61072;47.808;7.636;2023-06-10T09:07:46;23.50;99.90
21031;DHT22;61072;47.808;7.636;2023-06-10T09:10:14;23.50;99.90
21031;DHT22;61072;47.808;7.636;2023-06-10T09:12:40;23.60;99.90
21031;DHT22;61072;47.808;7.636;2023-06-10T09:15:08;23.70;99.90
21031;DHT22;61072;47.808;7.636;2023-06-10T09:17:34;23.70;99.90
21031;DHT22;61072;47.808;7.636;2023-06-10T09:20:03;23.70;99.90
21031;DHT22;61072;47.808;7.636;2023-06-10T09:22:32;23.80;99.90
21031;DHT22;61072;47.808;7.636;2023-06-10T09:25:11;23.80;99.90
21031;DHT22;61072;47.808;7.636;2023-06-10T09:27:45;23.90;99.90
21031;DHT22;61072;47.808;7.636;2023-06-10T09:30:32;23.90;99.90
21031;DHT22;61072;47.808;7.636;2023-06-10T09:33:09;23.90;99.90
21031;DHT22;61072;47.808;7.636;2023-06-10T09:35:36;23.90;99.90
21031;DHT22;61072;47.808;7.636;2023-06-10T09:38:03;24.00;99.90
21031;DHT22;61072;47.808;7.636;2023-06-10T09:40:29;24.00;99.90
21031;DHT22;61072;47.808;7.636;2023-06-10T09:42:58;24.00;99.90
21031;DHT22;61072;47.808;7.636;2023-06-10T09:45:32;24.10;99.90
21031;DHT22;61072;47.808;7.636;2023-06-10T09:47:59;24.10;99.90
21031;DHT22;61072;47.808;7.636;2023-06-10T09:50:26;24.10;99.90
21031;DHT22;61072;47.808;7.636;2023-06-10T09:52:53;24.20;99.90
21031;DHT22;61072;47.808;7.636;2023-06-10T09:55:19;24.20;99.90
21031;DHT22;61072;47.808;7.636;2023-06-10T09:57:49;24.30;99.90
21031;DHT22;61072;47.808;7.636;2023-06-10T10:00:16;24.30;99.90
21031;DHT22;61072;47.808;7.636;2023-06-10T10:02:51;24.30;99.90
21031;DHT22;61072;47.808;7.636;2023-06-10T10:05:20;24.30;99.90
21031;DHT22;61072;47.808;7.636;2023-06-10T10:07:48;24.40;99.90
21031;DHT22;61072;47.808;7.636;2023-06-10T10:10:20;24.40;99.90
21031;DHT22;61072;47.808;7.636;2023-06-10T10:12:48;24.50;99.90
21031;DHT22;61072;47.808;7.636;2023-06-10T10:15:16;24.50;99.90
21031;DHT22;61072;47.808;7.636;2023-06-10T10:17:49;24.50;99.90
21031;DHT22;61072;47.808;7.636;2023-06-10T10:20:22;24.60;99.90
21031;DHT22;61072;47.808;7.636;2023-06-10T10:22:52;24.60;99.90
21031;DHT22;61072;47.808;7.636;2023-06-10T10:25:34;24.60;99.90
21031;DHT22;61072;47.808;7.636;2023-06-10T10:30:41;24.70;99.90
21031;DHT22;61072;47.808;7.636;2023-06-10T10:33:12;24.70;99.90
21031;DHT22;61072;47.808;7.636;2023-06-10T10:35:39;24.70;99.90
21031;DHT22;61072;47.808;7.636;2023-06-10T10:38:07;24.80;99.90
21031;DHT22;61072;47.808;7.636;2023-06-10T10:40:34;24.80;99.90
21031;DHT22;61072;47.808;7.636;2023-06-10T10:43:02;24.90;99.90
21031;DHT22;61072;47.808;7.636;2023-06-10T10:45:29;24.90;99.90
21031;DHT22;61072;47.808;7.636;2023-06-10T10:47:56;25.00;99.90
21031;DHT22;61072;47.808;7.636;2023-06-10T10:50:24;25.00;99.90
21031;DHT22;61072;47.808;7.636;2023-06-10T10:52:53;25.00;99.90
21031;DHT22;61072;47.808;7.636;2023-06-10T10:55:24;25.10;99.90
21031;DHT22;61072;47.808;7.636;2023-06-10T11:00:30;25.10;99.90
21031;DHT22;61072;47.808;7.636;2023-06-10T11:03:07;25.20;99.90
21031;DHT22;61072;47.808;7.636;2023-06-10T11:05:40;25.20;99.90
21031;DHT22;61072;47.808;7.636;2023-06-10T11:08:09;25.30;99.90
21031;DHT22;61072;47.808;7.636;2023-06-10T11:10:37;25.40;99.90
21031;DHT22;61072;47.808;7.636;2023-06-10T11:13:14;25.50;99.90
21031;DHT22;61072;47.808;7.636;2023-06-10T11:15:46;25.50;99.90
21031;DHT22;61072;47.808;7.636;2023-06-10T11:18:29;25.50;99.90
21031;DHT22;61072;47.808;7.636;2023-06-10T11:21:05;25.50;99.90
21031;DHT22;61072;47.808;7.636;2023-06-10T11:23:33;25.50;99.90
21031;DHT22;61072;47.808;7.636;2023-06-10T11:26:19;25.50;99.90
21031;DHT22;61072;47.808;7.636;2023-06-10T11:31:23;25.60;99.90
21031;DHT22;61072;47.808;7.636;2023-06-10T11:33:54;25.60;99.90
21031;DHT22;61072;47.808;7.636;2023-06-10T11:36:21;25.70;99.90
21031;DHT22;61072;47.808;7.636;2023-06-10T11:38:49;25.70;99.90
21031;DHT22;61072;47.808;7.636;2023-06-10T11:41:17;25.80;99.90
21031;DHT22;61072;47.808;7.636;2023-06-10T11:43:44;25.80;99.90
21031;DHT22;61072;47.808;7.636;2023-06-10T11:46:14;25.90;99.90
21031;DHT22;61072;47.808;7.636;2023-06-10T11:48:48;26.00;99.90
21031;DHT22;61072;47.808;7.636;2023-06-10T11:51:15;26.10;99.90
21031;DHT22;61072;47.808;7.636;2023-06-10T11:53:49;26.20;99.90
21031;DHT22;61072;47.808;7.636;2023-06-10T11:56:26;26.40;99.90
21031;DHT22;61072;47.808;7.636;2023-06-10T11:58:59;26.50;99.90
21031;DHT22;61072;47.808;7.636;2023-06-10T12:01:32;26.60;99.90
21031;DHT22;61072;47.808;7.636;2023-06-10T12:04:03;26.60;99.90
21031;DHT22;61072;47.808;7.636;2023-06-10T12:06:40;26.70;99.90
21031;DHT22;61072;47.808;7.636;2023-06-10T12:09:18;26.70;99.90
21031;DHT22;61072;47.808;7.636;2023-06-10T12:12:04;26.80;99.90
21031;DHT22;61072;47.808;7.636;2023-06-10T12:14:52;26.80;99.90
21031;DHT22;61072;47.808;7.636;2023-06-10T12:17:22;26.80;99.90
21031;DHT22;61072;47.808;7.636;2023-06-10T12:19:50;26.80;99.90
21031;DHT22;61072;47.808;7.636;2023-06-10T12:22:17;26.90;99.90
21031;DHT22;61072;47.808;7.636;2023-06-10T12:24:57;26.90;99.90
21031;DHT22;61072;47.808;7.636;2023-06-10T12:27:29;26.90;99.90
21031;DHT22;61072;47.808;7.636;2023-06-10T12:29:57;26.90;99.90
21031;DHT22;61072;47.808;7.636;2023-06-10T12:32:41;26.90;99.90
21031;DHT22;61072;47.808;7.636;2023-06-10T12:35:10;26.90;99.90
21031;DHT22;61072;47.808;7.636;2023-06-10T12:37:39;27.00;99.90
21031;DHT22;61072;47.808;7.636;2023-06-10T12:40:09;27.00;99.90
21031;DHT22;61072;47.808;7.636;2023-06-10T12:42:37;27.10;99.90
21031;DHT22;61072;47.808;7.636;2023-06-10T12:45:05;27.10;99.90
21031;DHT22;61072;47.808;7.636;2023-06-10T12:47:36;27.20;99.90
21031;DHT22;61072;47.808;7.636;2023-06-10T12:50:05;27.30;99.90
21031;DHT22;61072;47.808;7.636;2023-06-10T12:52:32;27.50;99.90
21031;DHT22;61072;47.808;7.636;2023-06-10T12:54:59;27.60;99.90
21031;DHT22;61072;47.808;7.636;2023-06-10T12:57:27;27.70;99.90
21031;DHT22;61072;47.808;7.636;2023-06-10T12:59:53;27.70;99.90
21031;DHT22;61072;47.808;7.636;2023-06-10T13:02:20;27.80;99.90
21031;DHT22;61072;47.808;7.636;2023-06-10T13:04:50;27.80;99.90
21031;DHT22;61072;47.808;7.636;2023-06-10T13:07:18;27.80;99.90
21031;DHT22;61072;47.808;7.636;2023-06-10T13:09:44;27.80;99.90
21031;DHT22;61072;47.808;7.636;2023-06-10T13:12:15;27.70;99.90
21031;DHT22;61072;47.808;7.636;2023-06-10T13:14:42;27.70;99.90
21031;DHT22;61072;47.808;7.636;2023-06-10T13:17:09;27.70;99.90
21031;DHT22;61072;47.808;7.636;2023-06-10T13:19:36;27.60;99.90
21031;DHT22;61072;47.808;7.636;2023-06-10T13:22:03;27.60;99.90
21031;DHT22;61072;47.808;7.636;2023-06-10T13:24:30;27.50;99.90
21031;DHT22;61072;47.808;7.636;2023-06-10T13:26:57;27.50;99.90
21031;DHT22;61072;47.808;7.636;2023-06-10T13:29:24;27.50;99.90
21031;DHT22;61072;47.808;7.636;2023-06-10T13:31:50;27.50;99.90
21031;DHT22;61072;47.808;7.636;2023-06-10T13:34:17;27.50;99.90
21031;DHT22;61072;47.808;7.636;2023-06-10T13:36:44;27.60;99.90
21031;DHT22;61072;47.808;7.636;2023-06-10T13:39:11;27.70;99.90
21031;DHT22;61072;47.808;7.636;2023-06-10T13:41:37;27.80;99.90
21031;DHT22;61072;47.808;7.636;2023-06-10T13:44:04;27.90;99.90
21031;DHT22;61072;47.808;7.636;2023-06-10T13:46:31;28.00;99.90
21031;DHT22;61072;47.808;7.636;2023-06-10T13:48:57;28.00;99.90
21031;DHT22;61072;47.808;7.636;2023-06-10T13:51:24;28.10;99.70
21031;DHT22;61072;47.808;7.636;2023-06-10T13:53:51;28.10;99.20
21031;DHT22;61072;47.808;7.636;2023-06-10T13:56:18;28.10;99.40
21031;DHT22;61072;47.808;7.636;2023-06-10T13:58:45;28.20;99.90
21031;DHT22;61072;47.808;7.636;2023-06-10T14:01:12;28.20;99.90
21031;DHT22;61072;47.808;7.636;2023-06-10T14:03:39;28.30;99.90
21031;DHT22;61072;47.808;7.636;2023-06-10T14:06:05;28.30;99.90
21031;DHT22;61072;47.808;7.636;2023-06-10T14:08:32;28.30;99.90
21031;DHT22;61072;47.808;7.636;2023-06-10T14:10:59;28.30;99.90
21031;DHT22;61072;47.808;7.636;2023-06-10T14:13:26;28.20;99.80
21031;DHT22;61072;47.808;7.636;2023-06-10T14:15:53;28.20;99.90
21031;DHT22;61072;47.808;7.636;2023-06-10T14:18:19;28.20;99.90
21031;DHT22;61072;47.808;7.636;2023-06-10T14:20:46;28.10;99.90
21031;DHT22;61072;47.808;7.636;2023-06-10T14:23:13;28.00;99.40
21031;DHT22;61072;47.808;7.636;2023-06-10T14:25:39;27.90;99.90
21031;DHT22;61072;47.808;7.636;2023-06-10T14:28:06;27.90;99.60
21031;DHT22;61072;47.808;7.636;2023-06-10T14:30:33;27.90;99.80
21031;DHT22;61072;47.808;7.636;2023-06-10T14:33:00;28.00;99.40
21031;DHT22;61072;47.808;7.636;2023-06-10T14:35:26;28.10;99.50
21031;DHT22;61072;47.808;7.636;2023-06-10T14:37:53;28.20;99.80
21031;DHT22;61072;47.808;7.636;2023-06-10T14:40:20;28.30;99.70
21031;DHT22;61072;47.808;7.636;2023-06-10T14:42:51;28.30;98.90
21031;DHT22;61072;47.808;7.636;2023-06-10T14:45:18;28.30;99.20
21031;DHT22;61072;47.808;7.636;2023-06-10T14:47:44;28.40;98.30
21031;DHT22;61072;47.808;7.636;2023-06-10T14:50:12;28.40;98.40
21031;DHT22;61072;47.808;7.636;2023-06-10T14:52:38;28.40;98.70
21031;DHT22;61072;47.808;7.636;2023-06-10T14:55:06;28.40;99.00
21031;DHT22;61072;47.808;7.636;2023-06-10T14:57:33;28.40;98.90
21031;DHT22;61072;47.808;7.636;2023-06-10T15:00:02;28.40;98.60
21031;DHT22;61072;47.808;7.636;2023-06-10T15:02:30;28.40;98.10
21031;DHT22;61072;47.808;7.636;2023-06-10T15:04:56;28.50;98.50
21031;DHT22;61072;47.808;7.636;2023-06-10T15:07:23;28.60;98.70
21031;DHT22;61072;47.808;7.636;2023-06-10T15:09:50;28.60;98.50
21031;DHT22;61072;47.808;7.636;2023-06-10T15:12:16;28.70;97.70
21031;DHT22;61072;47.808;7.636;2023-06-10T15:14:43;28.70;97.90
21031;DHT22;61072;47.808;7.636;2023-06-10T15:17:10;28.60;97.50
21031;DHT22;61072;47.808;7.636;2023-06-10T15:19:37;28.60;97.70
21031;DHT22;61072;47.808;7.636;2023-06-10T15:22:03;28.50;97.50
21031;DHT22;61072;47.808;7.636;2023-06-10T15:24:30;28.40;97.40
21031;DHT22;61072;47.808;7.636;2023-06-10T15:26:57;28.40;97.50
21031;DHT22;61072;47.808;7.636;2023-06-10T15:29:24;28.40;97.60
21031;DHT22;61072;47.808;7.636;2023-06-10T15:31:51;28.40;97.80
21031;DHT22;61072;47.808;7.636;2023-06-10T15:34:18;28.40;97.60
21031;DHT22;61072;47.808;7.636;2023-06-10T15:36:44;28.30;97.70
21031;DHT22;61072;47.808;7.636;2023-06-10T15:39:11;28.30;97.20
21031;DHT22;61072;47.808;7.636;2023-06-10T15:41:38;28.30;98.30
21031;DHT22;61072;47.808;7.636;2023-06-10T15:44:05;28.30;98.10
21031;DHT22;61072;47.808;7.636;2023-06-10T15:46:31;28.30;97.90
21031;DHT22;61072;47.808;7.636;2023-06-10T15:49:00;28.30;98.20
21031;DHT22;61072;47.808;7.636;2023-06-10T15:51:27;28.30;98.00